sensor_id;sensor_type;location;lat;lon;timestamp;temperature;humidity
63771;DHT22;60282;43.862;18.430;2023-03-26T00:00:16;6.00;99.90
63771;DHT22;60282;43.862;18.430;2023-03-26T00:02:43;6.00;99.90
63771;DHT22;60282;43.862;18.430;2023-03-26T00:05:11;6.00;99.90
63771;DHT22;60282;43.862;18.430;2023-03-26T00:07:40;5.90;99.90
63771;DHT22;60282;43.862;18.430;2023-03-26T00:10:09;5.90;99.90
63771;DHT22;60282;43.862;18.430;2023-03-26T00:12:34;5.80;99.90
63771;DHT22;60282;43.862;18.430;2023-03-26T00:15:07;5.80;99.90
63771;DHT22;60282;43.862;18.430;2023-03-26T00:20:03;5.80;99.90
63771;DHT22;60282;43.862;18.430;2023-03-26T00:22:29;5.80;99.90
63771;DHT22;60282;43.862;18.430;2023-03-26T00:24:55;5.80;99.90
63771;DHT22;60282;43.862;18.430;2023-03-26T00:27:22;5.70;99.90
63771;DHT22;60282;43.862;18.430;2023-03-26T00:29:48;5.70;99.90
63771;DHT22;60282;43.862;18.430;2023-03-26T00:32:14;6.10;99.90
63771;DHT22;60282;43.862;18.430;2023-03-26T00:34:41;5.60;99.90
63771;DHT22;60282;43.862;18.430;2023-03-26T00:39:33;5.60;99.90
63771;DHT22;60282;43.862;18.430;2023-03-26T00:42:02;5.60;99.90
63771;DHT22;60282;43.862;18.430;2023-03-26T00:44:32;5.60;99.90
63771;DHT22;60282;43.862;18.430;2023-03-26T00:46:58;5.50;99.90
63771;DHT22;60282;43.862;18.430;2023-03-26T00:49:25;5.50;99.90
63771;DHT22;60282;43.862;18.430;2023-03-26T00:51:55;5.60;99.90
63771;DHT22;60282;43.862;18.430;2023-03-26T00:56:47;5.50;99.90
63771;DHT22;60282;43.862;18.430;2023-03-26T00:59:13;6.10;99.90
63771;DHT22;60282;43.862;18.430;2023-03-26T01:01:39;5.40;99.90
63771;DHT22;60282;43.862;18.430;2023-03-26T01:04:27;5.40;99.90
63771;DHT22;60282;43.862;18.430;2023-03-26T01:07:10;5.30;99.90
63771;DHT22;60282;43.862;18.430;2023-03-26T01:09:40;5.30;99.90
63771;DHT22;60282;43.862;18.430;2023-03-26T01:12:09;5.20;99.90
63771;DHT22;60282;43.862;18.430;2023-03-26T01:14:37;5.20;99.90
63771;DHT22;60282;43.862;18.430;2023-03-26T01:17:05;5.10;99.90
63771;DHT22;60282;43.862;18.430;2023-03-26T01:19:52;5.00;99.90
63771;DHT22;60282;43.862;18.430;2023-03-26T01:22:21;4.90;99.90
63771;DHT22;60282;43.862;18.430;2023-03-26T01:24:47;4.90;99.90
63771;DHT22;60282;43.862;18.430;2023-03-26T01:30:08;4.90;99.90
63771;DHT22;60282;43.862;18.430;2023-03-26T01:40:25;4.80;99.90
63771;DHT22;60282;43.862;18.430;2023-03-26T01:43:04;4.70;99.90
63771;DHT22;60282;43.862;18.430;2023-03-26T01:45:33;4.70;99.90
63771;DHT22;60282;43.862;18.430;2023-03-26T01:48:01;4.70;99.90
63771;DHT22;60282;43.862;18.430;2023-03-26T01:50:27;4.40;99.90
63771;DHT22;60282;43.862;18.430;2023-03-26T01:52:58;4.70;99.90
63771;DHT22;60282;43.862;18.430;2023-03-26T01:55:29;4.70;99.90
63771;DHT22;60282;43.862;18.430;2023-03-26T02:00:36;4.70;99.90
63771;DHT22;60282;43.862;18.430;2023-03-26T02:03:24;4.60;99.90
63771;DHT22;60282;43.862;18.430;2023-03-26T02:08:45;4.60;99.90
63771;DHT22;60282;43.862;18.430;2023-03-26T02:11:13;6.80;99.90
63771;DHT22;60282;43.862;18.430;2023-03-26T02:13:43;4.60;99.90
63771;DHT22;60282;43.862;18.430;2023-03-26T02:16:11;4.60;99.90
63771;DHT22;60282;43.862;18.430;2023-03-26T02:18:45;4.60;99.90
63771;DHT22;60282;43.862;18.430;2023-03-26T02:21:21;4.60;99.90
63771;DHT22;60282;43.862;18.430;2023-03-26T02:23:49;4.50;99.90
63771;DHT22;60282;43.862;18.430;2023-03-26T02:26:22;4.60;99.90
63771;DHT22;60282;43.862;18.430;2023-03-26T02:28:48;5.20;99.90
63771;DHT22;60282;43.862;18.430;2023-03-26T02:31:15;4.50;99.90
63771;DHT22;60282;43.862;18.430;2023-03-26T02:33:44;4.50;99.90
63771;DHT22;60282;43.862;18.430;2023-03-26T02:36:12;4.40;99.90
63771;DHT22;60282;43.862;18.430;2023-03-26T02:38:39;4.40;99.90
63771;DHT22;60282;43.862;18.430;2023-03-26T02:41:07;4.40;99.90
63771;DHT22;60282;43.862;18.430;2023-03-26T02:43:34;4.40;99.90
63771;DHT22;60282;43.862;18.430;2023-03-26T02:46:00;4.40;99.90
63771;DHT22;60282;43.862;18.430;2023-03-26T02:48:25;4.40;99.90
63771;DHT22;60282;43.862;18.430;2023-03-26T02:50:52;4.40;99.90
63771;DHT22;60282;43.862;18.430;2023-03-26T02:53:21;4.30;99.90
63771;DHT22;60282;43.862;18.430;2023-03-26T02:55:48;4.40;99.90
63771;DHT22;60282;43.862;18.430;2023-03-26T02:58:14;4.30;99.90
63771;DHT22;60282;43.862;18.430;2023-03-26T03:00:42;4.30;99.90
63771;DHT22;60282;43.862;18.430;2023-03-26T03:03:08;4.30;99.90
63771;DHT22;60282;43.862;18.430;2023-03-26T03:05:34;4.40;99.90
63771;DHT22;60282;43.862;18.430;2023-03-26T03:08:03;4.40;99.90
63771;DHT22;60282;43.862;18.430;2023-03-26T03:10:30;4.30;99.90
63771;DHT22;60282;43.862;18.430;2023-03-26T03:12:58;4.30;99.90
63771;DHT22;60282;43.862;18.430;2023-03-26T03:15:24;4.30;99.90
63771;DHT22;60282;43.862;18.430;2023-03-26T03:17:49;4.30;99.90
63771;DHT22;60282;43.862;18.430;2023-03-26T03:20:16;4.30;99.90
63771;DHT22;60282;43.862;18.430;2023-03-26T03:22:42;4.30;99.90
63771;DHT22;60282;43.862;18.430;2023-03-26T03:25:09;4.30;99.90
63771;DHT22;60282;43.862;18.430;2023-03-26T03:27:40;4.30;99.90
63771;DHT22;60282;43.862;18.430;2023-03-26T03:30:07;4.40;99.90
63771;DHT22;60282;43.862;18.430;2023-03-26T03:32:36;4.40;99.90
63771;DHT22;60282;43.862;18.430;2023-03-26T03:35:01;4.30;99.90
63771;DHT22;60282;43.862;18.430;2023-03-26T03:37:27;4.60;99.90
63771;DHT22;60282;43.862;18.430;2023-03-26T03:39:54;4.20;99.90
63771;DHT22;60282;43.862;18.430;2023-03-26T03:42:20;4.10;99.90
63771;DHT22;60282;43.862;18.430;2023-03-26T03:44:46;4.00;99.90
63771;DHT22;60282;43.862;18.430;2023-03-26T03:47:11;3.90;99.90
63771;DHT22;60282;43.862;18.430;2023-03-26T03:49:39;3.90;99.90
63771;DHT22;60282;43.862;18.430;2023-03-26T03:52:06;3.90;99.90
63771;DHT22;60282;43.862;18.430;2023-03-26T04:04:18;3.70;99.90
63771;DHT22;60282;43.862;18.430;2023-03-26T04:06:45;3.70;99.90
63771;DHT22;60282;43.862;18.430;2023-03-26T04:09:11;3.70;99.90
63771;DHT22;60282;43.862;18.430;2023-03-26T04:11:37;3.90;99.90
63771;DHT22;60282;43.862;18.430;2023-03-26T04:14:03;2.40;99.90
63771;DHT22;60282;43.862;18.430;2023-03-26T04:16:28;3.50;99.90
63771;DHT22;60282;43.862;18.430;2023-03-26T04:18:54;3.40;99.90
63771;DHT22;60282;43.862;18.430;2023-03-26T04:21:23;3.40;99.90
63771;DHT22;60282;43.862;18.430;2023-03-26T04:23:50;5.40;99.90
63771;DHT22;60282;43.862;18.430;2023-03-26T04:26:17;3.40;99.90
63771;DHT22;60282;43.862;18.430;2023-03-26T04:28:55;3.40;99.90
63771;DHT22;60282;43.862;18.430;2023-03-26T04:31:24;3.40;99.90
63771;DHT22;60282;43.862;18.430;2023-03-26T04:34:04;3.40;99.90
63771;DHT22;60282;43.862;18.430;2023-03-26T04:39:01;3.40;99.90
63771;DHT22;60282;43.862;18.430;2023-03-26T04:43:58;3.40;99.90
63771;DHT22;60282;43.862;18.430;2023-03-26T04:46:26;3.90;99.90
63771;DHT22;60282;43.862;18.430;2023-03-26T04:48:53;3.40;99.90
63771;DHT22;60282;43.862;18.430;2023-03-26T04:51:22;3.50;99.90
63771;DHT22;60282;43.862;18.430;2023-03-26T04:53:59;3.40;99.90
63771;DHT22;60282;43.862;18.430;2023-03-26T04:56:52;3.50;99.90
63771;DHT22;60282;43.862;18.430;2023-03-26T04:59:28;3.50;99.90
63771;DHT22;60282;43.862;18.430;2023-03-26T05:02:09;3.50;99.90
63771;DHT22;60282;43.862;18.430;2023-03-26T05:07:05;3.50;99.90
63771;DHT22;60282;43.862;18.430;2023-03-26T05:09:32;3.60;99.90
63771;DHT22;60282;43.862;18.430;2023-03-26T05:11:57;3.80;99.90
63771;DHT22;60282;43.862;18.430;2023-03-26T05:16:50;3.70;99.90
63771;DHT22;60282;43.862;18.430;2023-03-26T05:19:18;3.60;99.90
63771;DHT22;60282;43.862;18.430;2023-03-26T05:21:44;3.80;99.90
63771;DHT22;60282;43.862;18.430;2023-03-26T05:24:17;1.10;99.90
63771;DHT22;60282;43.862;18.430;2023-03-26T05:26:44;3.90;99.90
63771;DHT22;60282;43.862;18.430;2023-03-26T05:29:17;4.10;99.90
63771;DHT22;60282;43.862;18.430;2023-03-26T05:31:42;4.00;99.90
63771;DHT22;60282;43.862;18.430;2023-03-26T05:34:20;4.20;99.90
63771;DHT22;60282;43.862;18.430;2023-03-26T05:36:49;4.30;99.90
63771;DHT22;60282;43.862;18.430;2023-03-26T05:39:15;4.30;99.90
63771;DHT22;60282;43.862;18.430;2023-03-26T05:41:42;4.40;99.90
63771;DHT22;60282;43.862;18.430;2023-03-26T05:44:09;4.40;99.90
63771;DHT22;60282;43.862;18.430;2023-03-26T05:46:35;4.60;99.90
63771;DHT22;60282;43.862;18.430;2023-03-26T05:49:01;4.70;99.90
63771;DHT22;60282;43.862;18.430;2023-03-26T05:51:27;4.80;99.90
63771;DHT22;60282;43.862;18.430;2023-03-26T05:53:54;4.80;99.90
63771;DHT22;60282;43.862;18.430;2023-03-26T05:56:20;4.90;99.90
63771;DHT22;60282;43.862;18.430;2023-03-26T05:58:46;2.10;99.90
63771;DHT22;60282;43.862;18.430;2023-03-26T06:01:13;5.10;99.90
63771;DHT22;60282;43.862;18.430;2023-03-26T06:03:44;5.30;99.90
63771;DHT22;60282;43.862;18.430;2023-03-26T06:06:12;5.30;99.90
63771;DHT22;60282;43.862;18.430;2023-03-26T06:08:45;5.40;99.90
63771;DHT22;60282;43.862;18.430;2023-03-26T06:11:14;5.50;99.90
63771;DHT22;60282;43.862;18.430;2023-03-26T06:13:42;5.60;99.90
63771;DHT22;60282;43.862;18.430;2023-03-26T06:16:09;5.70;99.90
63771;DHT22;60282;43.862;18.430;2023-03-26T06:18:35;5.80;99.90
63771;DHT22;60282;43.862;18.430;2023-03-26T06:21:01;5.60;99.90
63771;DHT22;60282;43.862;18.430;2023-03-26T06:23:28;6.00;99.90
63771;DHT22;60282;43.862;18.430;2023-03-26T06:25:53;3.80;99.90
63771;DHT22;60282;43.862;18.430;2023-03-26T06:28:22;6.10;99.90
63771;DHT22;60282;43.862;18.430;2023-03-26T06:30:48;7.50;99.90
63771;DHT22;60282;43.862;18.430;2023-03-26T06:33:16;6.40;99.90
63771;DHT22;60282;43.862;18.430;2023-03-26T06:35:43;6.50;99.90
63771;DHT22;60282;43.862;18.430;2023-03-26T06:38:10;6.60;99.90
63771;DHT22;60282;43.862;18.430;2023-03-26T06:40:39;6.60;99.90
63771;DHT22;60282;43.862;18.430;2023-03-26T06:43:05;6.60;99.90
63771;DHT22;60282;43.862;18.430;2023-03-26T06:45:32;6.80;99.90
63771;DHT22;60282;43.862;18.430;2023-03-26T06:47:58;7.00;99.90
63771;DHT22;60282;43.862;18.430;2023-03-26T06:50:25;7.00;99.90
63771;DHT22;60282;43.862;18.430;2023-03-26T06:52:54;7.10;99.90
63771;DHT22;60282;43.862;18.430;2023-03-26T06:55:21;7.20;99.90
63771;DHT22;60282;43.862;18.430;2023-03-26T06:57:51;7.30;99.90
63771;DHT22;60282;43.862;18.430;2023-03-26T07:00:19;7.40;99.90
63771;DHT22;60282;43.862;18.430;2023-03-26T07:02:45;7.40;99.90
63771;DHT22;60282;43.862;18.430;2023-03-26T07:05:11;7.40;99.90
63771;DHT22;60282;43.862;18.430;2023-03-26T07:07:38;7.40;99.90
63771;DHT22;60282;43.862;18.430;2023-03-26T07:10:06;7.50;99.90
63771;DHT22;60282;43.862;18.430;2023-03-26T07:12:32;7.60;99.90
63771;DHT22;60282;43.862;18.430;2023-03-26T07:14:59;7.60;99.90
63771;DHT22;60282;43.862;18.430;2023-03-26T07:17:26;7.60;99.90
63771;DHT22;60282;43.862;18.430;2023-03-26T07:19:52;7.70;99.90
63771;DHT22;60282;43.862;18.430;2023-03-26T07:22:20;7.70;99.90
63771;DHT22;60282;43.862;18.430;2023-03-26T07:24:47;7.90;99.90
63771;DHT22;60282;43.862;18.430;2023-03-26T07:27:45;8.00;99.90
63771;DHT22;60282;43.862;18.430;2023-03-26T07:30:24;8.00;99.90
63771;DHT22;60282;43.862;18.430;2023-03-26T07:33:02;8.10;99.90
63771;DHT22;60282;43.862;18.430;2023-03-26T07:36:00;11.60;99.90
63771;DHT22;60282;43.862;18.430;2023-03-26T07:38:47;8.30;99.90
63771;DHT22;60282;43.862;18.430;2023-03-26T07:47:32;9.10;99.90
63771;DHT22;60282;43.862;18.430;2023-03-26T07:49:59;9.10;99.90
63771;DHT22;60282;43.862;18.430;2023-03-26T07:52:26;9.30;99.90
63771;DHT22;60282;43.862;18.430;2023-03-26T07:54:52;9.50;99.90
63771;DHT22;60282;43.862;18.430;2023-03-26T08:03:10;9.90;99.90
63771;DHT22;60282;43.862;18.430;2023-03-26T08:09:22;10.20;99.90
63771;DHT22;60282;43.862;18.430;2023-03-26T08:18:31;10.60;99.90
63771;DHT22;60282;43.862;18.430;2023-03-26T08:21:02;10.90;99.90
63771;DHT22;60282;43.862;18.430;2023-03-26T08:27:04;10.80;99.90
63771;DHT22;60282;43.862;18.430;2023-03-26T08:32:18;11.20;99.90
63771;DHT22;60282;43.862;18.430;2023-03-26T08:34:48;11.40;99.90
63771;DHT22;60282;43.862;18.430;2023-03-26T08:37:14;11.50;99.90
63771;DHT22;60282;43.862;18.430;2023-03-26T08:39:40;11.70;99.90
63771;DHT22;60282;43.862;18.430;2023-03-26T08:52:59;14.60;96.10
63771;DHT22;60282;43.862;18.430;2023-03-26T09:18:07;14.00;89.00
63771;DHT22;60282;43.862;18.430;2023-03-26T09:29:21;14.80;84.00
63771;DHT22;60282;43.862;18.430;2023-03-26T09:31:42;15.10;82.30
63771;DHT22;60282;43.862;18.430;2023-03-26T09:34:31;15.30;80.10
63771;DHT22;60282;43.862;18.430;2023-03-26T09:37:27;15.50;78.00
63771;DHT22;60282;43.862;18.430;2023-03-26T09:42:39;15.70;76.60
63771;DHT22;60282;43.862;18.430;2023-03-26T10:04:32;17.00;69.70
63771;DHT22;60282;43.862;18.430;2023-03-26T10:10:03;17.30;68.80
63771;DHT22;60282;43.862;18.430;2023-03-26T10:12:37;17.50;66.70
63771;DHT22;60282;43.862;18.430;2023-03-26T10:15:39;17.60;67.30
63771;DHT22;60282;43.862;18.430;2023-03-26T10:23:59;17.60;64.20
63771;DHT22;60282;43.862;18.430;2023-03-26T10:26:50;17.70;65.00
63771;DHT22;60282;43.862;18.430;2023-03-26T10:35:07;18.60;62.20
63771;DHT22;60282;43.862;18.430;2023-03-26T10:43:09;18.70;58.50
63771;DHT22;60282;43.862;18.430;2023-03-26T10:54:14;18.90;59.20
63771;DHT22;60282;43.862;18.430;2023-03-26T10:56:44;19.10;57.80
63771;DHT22;60282;43.862;18.430;2023-03-26T10:59:14;19.30;58.20
63771;DHT22;60282;43.862;18.430;2023-03-26T11:02:01;19.30;57.20
63771;DHT22;60282;43.862;18.430;2023-03-26T11:10:01;19.50;57.00
63771;DHT22;60282;43.862;18.430;2023-03-26T11:15:36;19.60;57.00
63771;DHT22;60282;43.862;18.430;2023-03-26T11:23:35;20.10;56.40
63771;DHT22;60282;43.862;18.430;2023-03-26T11:28:47;19.90;56.80
63771;DHT22;60282;43.862;18.430;2023-03-26T11:33:57;19.70;55.80
63771;DHT22;60282;43.862;18.430;2023-03-26T11:36:34;19.80;56.80
63771;DHT22;60282;43.862;18.430;2023-03-26T11:39:04;19.90;56.60
63771;DHT22;60282;43.862;18.430;2023-03-26T11:41:33;20.10;57.00
63771;DHT22;60282;43.862;18.430;2023-03-26T11:46:43;19.90;55.30
63771;DHT22;60282;43.862;18.430;2023-03-26T11:49:12;20.30;55.20
63771;DHT22;60282;43.862;18.430;2023-03-26T11:51:40;20.50;55.30
63771;DHT22;60282;43.862;18.430;2023-03-26T11:54:10;20.20;52.50
63771;DHT22;60282;43.862;18.430;2023-03-26T11:59:18;20.80;53.40
63771;DHT22;60282;43.862;18.430;2023-03-26T12:01:58;21.10;51.40
63771;DHT22;60282;43.862;18.430;2023-03-26T12:04:37;21.30;51.00
63771;DHT22;60282;43.862;18.430;2023-03-26T12:07:22;21.40;50.40
63771;DHT22;60282;43.862;18.430;2023-03-26T12:09:59;21.50;51.30
63771;DHT22;60282;43.862;18.430;2023-03-26T12:12:28;21.40;49.90
63771;DHT22;60282;43.862;18.430;2023-03-26T12:14:55;21.40;50.50
63771;DHT22;60282;43.862;18.430;2023-03-26T12:17:26;21.50;49.50
63771;DHT22;60282;43.862;18.430;2023-03-26T12:19:54;21.40;48.70
63771;DHT22;60282;43.862;18.430;2023-03-26T12:22:36;21.60;49.20
63771;DHT22;60282;43.862;18.430;2023-03-26T12:25:14;21.60;47.70
63771;DHT22;60282;43.862;18.430;2023-03-26T12:27:47;21.60;48.70
63771;DHT22;60282;43.862;18.430;2023-03-26T12:32:50;21.20;47.90
63771;DHT22;60282;43.862;18.430;2023-03-26T12:35:23;21.50;48.70
63771;DHT22;60282;43.862;18.430;2023-03-26T12:37:54;21.30;48.80
63771;DHT22;60282;43.862;18.430;2023-03-26T12:40:33;21.10;49.90
63771;DHT22;60282;43.862;18.430;2023-03-26T12:43:24;21.00;48.60
63771;DHT22;60282;43.862;18.430;2023-03-26T12:45:54;21.30;49.00
63771;DHT22;60282;43.862;18.430;2023-03-26T12:48:21;21.10;48.90
63771;DHT22;60282;43.862;18.430;2023-03-26T12:56:27;21.00;48.10
63771;DHT22;60282;43.862;18.430;2023-03-26T12:59:22;20.90;48.40
63771;DHT22;60282;43.862;18.430;2023-03-26T13:10:32;19.90;49.10
63771;DHT22;60282;43.862;18.430;2023-03-26T13:13:07;19.80;49.60
63771;DHT22;60282;43.862;18.430;2023-03-26T13:15:43;19.70;50.00
63771;DHT22;60282;43.862;18.430;2023-03-26T13:24:51;19.00;51.70
63771;DHT22;60282;43.862;18.430;2023-03-26T13:35:07;18.60;53.20
63771;DHT22;60282;43.862;18.430;2023-03-26T13:40:24;18.30;54.70
63771;DHT22;60282;43.862;18.430;2023-03-26T13:43:27;18.30;54.70
63771;DHT22;60282;43.862;18.430;2023-03-26T13:48:28;18.30;55.40
63771;DHT22;60282;43.862;18.430;2023-03-26T13:51:01;18.20;55.40
63771;DHT22;60282;43.862;18.430;2023-03-26T13:53:33;18.10;55.50
63771;DHT22;60282;43.862;18.430;2023-03-26T13:56:01;18.10;55.90
63771;DHT22;60282;43.862;18.430;2023-03-26T13:58:36;18.00;56.70
63771;DHT22;60282;43.862;18.430;2023-03-26T14:01:37;18.00;57.10
63771;DHT22;60282;43.862;18.430;2023-03-26T14:09:41;18.10;57.10
63771;DHT22;60282;43.862;18.430;2023-03-26T14:15:33;18.90;56.30
63771;DHT22;60282;43.862;18.430;2023-03-26T14:18:26;19.00;56.00
63771;DHT22;60282;43.862;18.430;2023-03-26T14:37:51;19.50;55.90
63771;DHT22;60282;43.862;18.430;2023-03-26T14:41:00;20.10;56.70
63771;DHT22;60282;43.862;18.430;2023-03-26T14:43:35;19.50;56.10
63771;DHT22;60282;43.862;18.430;2023-03-26T14:52:00;18.40;57.60
63771;DHT22;60282;43.862;18.430;2023-03-26T14:54:30;18.60;58.40
63771;DHT22;60282;43.862;18.430;2023-03-26T15:02:36;18.90;58.30
63771;DHT22;60282;43.862;18.430;2023-03-26T15:05:25;19.20;58.10
63771;DHT22;60282;43.862;18.430;2023-03-26T15:14:20;19.00;58.50
63771;DHT22;60282;43.862;18.430;2023-03-26T15:25:54;20.80;56.20
63771;DHT22;60282;43.862;18.430;2023-03-26T15:29:00;21.00;55.20
63771;DHT22;60282;43.862;18.430;2023-03-26T15:35:06;20.70;55.50
63771;DHT22;60282;43.862;18.430;2023-03-26T15:38:04;20.70;55.60
63771;DHT22;60282;43.862;18.430;2023-03-26T15:43:16;20.50;55.60
63771;DHT22;60282;43.862;18.430;2023-03-26T15:53:46;21.10;55.50
63771;DHT22;60282;43.862;18.430;2023-03-26T15:56:38;21.50;54.70
63771;DHT22;60282;43.862;18.430;2023-03-26T15:59:23;20.80;53.40
63771;DHT22;60282;43.862;18.430;2023-03-26T16:07:50;20.00;53.60
63771;DHT22;60282;43.862;18.430;2023-03-26T16:12:31;20.70;54.20
63771;DHT22;60282;43.862;18.430;2023-03-26T16:20:49;20.30;54.40
63771;DHT22;60282;43.862;18.430;2023-03-26T16:29:19;20.00;54.90
63771;DHT22;60282;43.862;18.430;2023-03-26T16:35:01;19.20;57.00
63771;DHT22;60282;43.862;18.430;2023-03-26T16:51:11;16.40;62.20
63771;DHT22;60282;43.862;18.430;2023-03-26T16:53:52;16.40;62.30
63771;DHT22;60282;43.862;18.430;2023-03-26T16:56:43;16.30;63.10
63771;DHT22;60282;43.862;18.430;2023-03-26T16:59:10;15.60;62.90
63771;DHT22;60282;43.862;18.430;2023-03-26T17:02:06;15.80;64.20
63771;DHT22;60282;43.862;18.430;2023-03-26T17:04:41;15.70;64.20
63771;DHT22;60282;43.862;18.430;2023-03-26T17:07:11;15.70;64.30
63771;DHT22;60282;43.862;18.430;2023-03-26T17:10:01;15.50;64.90
63771;DHT22;60282;43.862;18.430;2023-03-26T17:16:03;15.30;65.60
63771;DHT22;60282;43.862;18.430;2023-03-26T17:27:26;15.00;66.70
63771;DHT22;60282;43.862;18.430;2023-03-26T17:33:09;14.80;67.10
63771;DHT22;60282;43.862;18.430;2023-03-26T17:35:42;14.80;67.60
63771;DHT22;60282;43.862;18.430;2023-03-26T17:40:54;14.70;68.40
63771;DHT22;60282;43.862;18.430;2023-03-26T17:43:48;14.70;68.50
63771;DHT22;60282;43.862;18.430;2023-03-26T17:46:40;14.60;68.60
63771;DHT22;60282;43.862;18.430;2023-03-26T17:49:24;14.60;68.80
63771;DHT22;60282;43.862;18.430;2023-03-26T17:52:19;14.60;69.20
63771;DHT22;60282;43.862;18.430;2023-03-26T17:54:49;14.50;69.40
63771;DHT22;60282;43.862;18.430;2023-03-26T17:57:38;14.50;69.60
63771;DHT22;60282;43.862;18.430;2023-03-26T18:00:13;14.40;70.00
63771;DHT22;60282;43.862;18.430;2023-03-26T18:02:50;13.30;69.90
63771;DHT22;60282;43.862;18.430;2023-03-26T18:05:19;14.40;70.80
63771;DHT22;60282;43.862;18.430;2023-03-26T18:18:50;14.30;72.10
63771;DHT22;60282;43.862;18.430;2023-03-26T18:21:37;14.20;72.50
63771;DHT22;60282;43.862;18.430;2023-03-26T18:24:05;14.20;72.80
63771;DHT22;60282;43.862;18.430;2023-03-26T18:26:57;14.20;74.10
63771;DHT22;60282;43.862;18.430;2023-03-26T18:29:28;14.10;74.70
63771;DHT22;60282;43.862;18.430;2023-03-26T18:34:37;14.10;76.30
63771;DHT22;60282;43.862;18.430;2023-03-26T18:39:38;14.10;77.80
63771;DHT22;60282;43.862;18.430;2023-03-26T18:42:04;14.10;80.10
63771;DHT22;60282;43.862;18.430;2023-03-26T18:44:34;14.10;79.20
63771;DHT22;60282;43.862;18.430;2023-03-26T18:47:04;14.00;79.80
63771;DHT22;60282;43.862;18.430;2023-03-26T18:49:31;14.00;80.40
63771;DHT22;60282;43.862;18.430;2023-03-26T18:51:57;14.00;81.60
63771;DHT22;60282;43.862;18.430;2023-03-26T18:54:24;14.00;83.00
63771;DHT22;60282;43.862;18.430;2023-03-26T18:56:53;13.80;82.40
63771;DHT22;60282;43.862;18.430;2023-03-26T18:59:30;13.90;83.60
63771;DHT22;60282;43.862;18.430;2023-03-26T19:02:04;13.90;83.60
63771;DHT22;60282;43.862;18.430;2023-03-26T19:04:32;14.00;83.70
63771;DHT22;60282;43.862;18.430;2023-03-26T19:07:00;13.90;83.90
63771;DHT22;60282;43.862;18.430;2023-03-26T19:09:29;13.90;84.20
63771;DHT22;60282;43.862;18.430;2023-03-26T19:11:56;13.90;84.60
63771;DHT22;60282;43.862;18.430;2023-03-26T19:14:23;12.90;84.20
63771;DHT22;60282;43.862;18.430;2023-03-26T19:17:05;13.90;85.50
63771;DHT22;60282;43.862;18.430;2023-03-26T19:19:34;13.90;85.30
63771;DHT22;60282;43.862;18.430;2023-03-26T19:22:07;13.90;85.20
63771;DHT22;60282;43.862;18.430;2023-03-26T19:24:35;13.90;85.00
63771;DHT22;60282;43.862;18.430;2023-03-26T19:27:04;13.90;84.80
63771;DHT22;60282;43.862;18.430;2023-03-26T19:29:37;13.90;84.50
63771;DHT22;60282;43.862;18.430;2023-03-26T19:32:18;13.90;84.50
63771;DHT22;60282;43.862;18.430;2023-03-26T19:34:46;14.00;83.50
63771;DHT22;60282;43.862;18.430;2023-03-26T19:37:19;14.00;82.10
63771;DHT22;60282;43.862;18.430;2023-03-26T19:39:51;13.90;82.50
63771;DHT22;60282;43.862;18.430;2023-03-26T19:42:24;13.80;83.10
63771;DHT22;60282;43.862;18.430;2023-03-26T19:44:51;13.80;83.10
63771;DHT22;60282;43.862;18.430;2023-03-26T19:47:24;13.90;83.70
63771;DHT22;60282;43.862;18.430;2023-03-26T19:50:22;13.80;83.00
63771;DHT22;60282;43.862;18.430;2023-03-26T19:55:40;15.60;81.40
63771;DHT22;60282;43.862;18.430;2023-03-26T19:58:08;14.00;78.90
63771;DHT22;60282;43.862;18.430;2023-03-26T20:00:36;14.10;78.10
63771;DHT22;60282;43.862;18.430;2023-03-26T20:03:03;13.90;78.40
63771;DHT22;60282;43.862;18.430;2023-03-26T20:05:32;14.10;78.00
63771;DHT22;60282;43.862;18.430;2023-03-26T20:08:12;14.00;78.00
63771;DHT22;60282;43.862;18.430;2023-03-26T20:10:41;14.00;79.30
63771;DHT22;60282;43.862;18.430;2023-03-26T20:13:16;13.70;79.30
63771;DHT22;60282;43.862;18.430;2023-03-26T20:15:57;14.00;80.10
63771;DHT22;60282;43.862;18.430;2023-03-26T20:18:26;13.90;80.80
63771;DHT22;60282;43.862;18.430;2023-03-26T20:20:52;13.90;81.70
63771;DHT22;60282;43.862;18.430;2023-03-26T20:23:18;13.80;82.30
63771;DHT22;60282;43.862;18.430;2023-03-26T20:25:50;12.10;82.90
63771;DHT22;60282;43.862;18.430;2023-03-26T20:28:18;13.90;83.30
63771;DHT22;60282;43.862;18.430;2023-03-26T20:30:48;13.80;83.90
63771;DHT22;60282;43.862;18.430;2023-03-26T20:33:22;13.90;84.20
63771;DHT22;60282;43.862;18.430;2023-03-26T20:36:07;13.90;85.60
63771;DHT22;60282;43.862;18.430;2023-03-26T20:38:34;13.90;86.10
63771;DHT22;60282;43.862;18.430;2023-03-26T20:41:01;13.90;88.90
63771;DHT22;60282;43.862;18.430;2023-03-26T20:43:45;13.90;85.70
63771;DHT22;60282;43.862;18.430;2023-03-26T20:46:29;14.60;85.90
63771;DHT22;60282;43.862;18.430;2023-03-26T20:49:01;14.00;87.80
63771;DHT22;60282;43.862;18.430;2023-03-26T20:51:32;13.90;85.60
63771;DHT22;60282;43.862;18.430;2023-03-26T20:53:58;13.90;86.90
63771;DHT22;60282;43.862;18.430;2023-03-26T20:56:24;13.90;87.80
63771;DHT22;60282;43.862;18.430;2023-03-26T20:58:51;13.50;88.00
63771;DHT22;60282;43.862;18.430;2023-03-26T21:01:22;12.50;88.10
63771;DHT22;60282;43.862;18.430;2023-03-26T21:03:47;13.80;89.30
63771;DHT22;60282;43.862;18.430;2023-03-26T21:06:15;13.70;90.00
63771;DHT22;60282;43.862;18.430;2023-03-26T21:08:42;13.80;89.60
63771;DHT22;60282;43.862;18.430;2023-03-26T21:14:31;13.70;90.10
63771;DHT22;60282;43.862;18.430;2023-03-26T21:16:58;13.70;90.40
63771;DHT22;60282;43.862;18.430;2023-03-26T21:19:24;13.70;90.90
63771;DHT22;60282;43.862;18.430;2023-03-26T21:27:24;13.70;90.70
63771;DHT22;60282;43.862;18.430;2023-03-26T21:29:55;11.20;90.20
63771;DHT22;60282;43.862;18.430;2023-03-26T21:32:25;13.70;90.40
63771;DHT22;60282;43.862;18.430;2023-03-26T21:34:51;13.70;91.00
63771;DHT22;60282;43.862;18.430;2023-03-26T21:37:18;16.50;92.10
63771;DHT22;60282;43.862;18.430;2023-03-26T21:39:45;13.80;91.00
63771;DHT22;60282;43.862;18.430;2023-03-26T21:42:12;13.80;91.60
63771;DHT22;60282;43.862;18.430;2023-03-26T21:44:40;13.80;91.40
63771;DHT22;60282;43.862;18.430;2023-03-26T21:47:06;13.70;91.90
63771;DHT22;60282;43.862;18.430;2023-03-26T21:49:35;13.70;91.60
63771;DHT22;60282;43.862;18.430;2023-03-26T21:52:01;13.70;92.30
63771;DHT22;60282;43.862;18.430;2023-03-26T21:54:29;13.70;91.90
63771;DHT22;60282;43.862;18.430;2023-03-26T21:57:09;13.70;91.80
63771;DHT22;60282;43.862;18.430;2023-03-26T22:06:06;13.60;92.10
63771;DHT22;60282;43.862;18.430;2023-03-26T22:08:38;13.50;92.50
63771;DHT22;60282;43.862;18.430;2023-03-26T22:11:05;13.50;92.60